sensor_id;sensor_type;location;lat;lon;timestamp;P1;durP1;ratioP1;P2;durP2;ratioP2
19113;SDS011;9689;51.052;13.772;2023-04-09T00:04:50;56.88;;;25.85;;
19113;SDS011;9689;51.052;13.772;2023-04-09T00:09:51;52.53;;;27.10;;
19113;SDS011;9689;51.052;13.772;2023-04-09T00:14:53;54.58;;;26.30;;
19113;SDS011;9689;51.052;13.772;2023-04-09T00:19:53;55.88;;;25.98;;
19113;SDS011;9689;51.052;13.772;2023-04-09T00:24:54;57.75;;;25.90;;
19113;SDS011;9689;51.052;13.772;2023-04-09T00:29:56;58.35;;;27.70;;
19113;SDS011;9689;51.052;13.772;2023-04-09T00:34:57;58.28;;;27.67;;
19113;SDS011;9689;51.052;13.772;2023-04-09T00:39:58;56.55;;;27.77;;
19113;SDS011;9689;51.052;13.772;2023-04-09T00:45:00;56.08;;;26.65;;
19113;SDS011;9689;51.052;13.772;2023-04-09T00:50:01;58.13;;;26.98;;
19113;SDS011;9689;51.052;13.772;2023-04-09T00:55:02;58.17;;;27.02;;
19113;SDS011;9689;51.052;13.772;2023-04-09T01:00:07;58.97;;;27.90;;
19113;SDS011;9689;51.052;13.772;2023-04-09T01:05:09;55.25;;;26.90;;
19113;SDS011;9689;51.052;13.772;2023-04-09T01:10:14;49.53;;;24.45;;
19113;SDS011;9689;51.052;13.772;2023-04-09T01:15:24;52.72;;;26.15;;
19113;SDS011;9689;51.052;13.772;2023-04-09T01:20:29;51.47;;;26.50;;
19113;SDS011;9689;51.052;13.772;2023-04-09T01:25:42;58.03;;;26.30;;
19113;SDS011;9689;51.052;13.772;2023-04-09T01:30:48;65.57;;;30.85;;
19113;SDS011;9689;51.052;13.772;2023-04-09T01:35:51;59.97;;;27.33;;
19113;SDS011;9689;51.052;13.772;2023-04-09T01:40:54;63.38;;;27.13;;
19113;SDS011;9689;51.052;13.772;2023-04-09T01:45:58;55.65;;;26.25;;
19113;SDS011;9689;51.052;13.772;2023-04-09T01:51:00;57.47;;;27.25;;
19113;SDS011;9689;51.052;13.772;2023-04-09T01:56:01;57.20;;;28.10;;
19113;SDS011;9689;51.052;13.772;2023-04-09T02:01:04;61.15;;;27.38;;
19113;SDS011;9689;51.052;13.772;2023-04-09T02:06:12;58.45;;;27.35;;
19113;SDS011;9689;51.052;13.772;2023-04-09T02:11:14;59.63;;;28.15;;
19113;SDS011;9689;51.052;13.772;2023-04-09T02:16:17;60.42;;;28.15;;
19113;SDS011;9689;51.052;13.772;2023-04-09T02:21:18;58.60;;;28.52;;
19113;SDS011;9689;51.052;13.772;2023-04-09T02:26:19;60.13;;;27.05;;
19113;SDS011;9689;51.052;13.772;2023-04-09T02:31:21;58.75;;;26.65;;
19113;SDS011;9689;51.052;13.772;2023-04-09T02:36:21;54.90;;;26.48;;
19113;SDS011;9689;51.052;13.772;2023-04-09T02:47:42;56.60;;;26.65;;
19113;SDS011;9689;51.052;13.772;2023-04-09T02:52:44;64.20;;;29.15;;
19113;SDS011;9689;51.052;13.772;2023-04-09T02:57:45;59.85;;;27.60;;
19113;SDS011;9689;51.052;13.772;2023-04-09T03:02:47;63.35;;;28.60;;
19113;SDS011;9689;51.052;13.772;2023-04-09T03:07:48;65.55;;;29.08;;
19113;SDS011;9689;51.052;13.772;2023-04-09T03:12:48;59.03;;;26.63;;
19113;SDS011;9689;51.052;13.772;2023-04-09T03:17:51;58.75;;;27.60;;
19113;SDS011;9689;51.052;13.772;2023-04-09T03:22:52;56.70;;;26.85;;
19113;SDS011;9689;51.052;13.772;2023-04-09T03:28:01;62.00;;;28.17;;
19113;SDS011;9689;51.052;13.772;2023-04-09T03:33:13;57.60;;;26.58;;
19113;SDS011;9689;51.052;13.772;2023-04-09T03:38:22;57.00;;;25.20;;
19113;SDS011;9689;51.052;13.772;2023-04-09T03:43:24;57.03;;;25.92;;
19113;SDS011;9689;51.052;13.772;2023-04-09T03:48:26;61.22;;;26.65;;
19113;SDS011;9689;51.052;13.772;2023-04-09T03:53:29;49.78;;;24.80;;
19113;SDS011;9689;51.052;13.772;2023-04-09T03:58:34;55.58;;;27.05;;
19113;SDS011;9689;51.052;13.772;2023-04-09T04:03:37;52.25;;;26.15;;
19113;SDS011;9689;51.052;13.772;2023-04-09T04:08:44;54.58;;;26.85;;
19113;SDS011;9689;51.052;13.772;2023-04-09T04:13:45;61.20;;;26.70;;
19113;SDS011;9689;51.052;13.772;2023-04-09T04:18:47;54.03;;;25.52;;
19113;SDS011;9689;51.052;13.772;2023-04-09T04:23:49;52.53;;;26.50;;
19113;SDS011;9689;51.052;13.772;2023-04-09T04:28:55;55.63;;;25.60;;
19113;SDS011;9689;51.052;13.772;2023-04-09T04:34:11;54.72;;;24.50;;
19113;SDS011;9689;51.052;13.772;2023-04-09T04:39:16;53.65;;;24.60;;
19113;SDS011;9689;51.052;13.772;2023-04-09T04:44:23;50.65;;;24.92;;
19113;SDS011;9689;51.052;13.772;2023-04-09T04:49:33;53.58;;;25.55;;
19113;SDS011;9689;51.052;13.772;2023-04-09T04:54:37;53.80;;;25.95;;
19113;SDS011;9689;51.052;13.772;2023-04-09T04:59:39;52.60;;;25.83;;
19113;SDS011;9689;51.052;13.772;2023-04-09T05:04:43;52.00;;;24.42;;
19113;SDS011;9689;51.052;13.772;2023-04-09T05:09:48;54.45;;;25.50;;
19113;SDS011;9689;51.052;13.772;2023-04-09T05:14:48;52.33;;;26.67;;
19113;SDS011;9689;51.052;13.772;2023-04-09T05:19:51;49.10;;;24.02;;
19113;SDS011;9689;51.052;13.772;2023-04-09T05:24:58;50.35;;;23.45;;
19113;SDS011;9689;51.052;13.772;2023-04-09T05:30:00;47.85;;;24.13;;
19113;SDS011;9689;51.052;13.772;2023-04-09T05:35:04;53.25;;;25.10;;
19113;SDS011;9689;51.052;13.772;2023-04-09T05:40:10;52.05;;;24.75;;
19113;SDS011;9689;51.052;13.772;2023-04-09T05:45:13;50.92;;;24.88;;
19113;SDS011;9689;51.052;13.772;2023-04-09T05:50:22;52.92;;;25.00;;
19113;SDS011;9689;51.052;13.772;2023-04-09T05:55:25;50.58;;;24.65;;
19113;SDS011;9689;51.052;13.772;2023-04-09T06:00:30;45.65;;;23.23;;
19113;SDS011;9689;51.052;13.772;2023-04-09T06:05:32;50.05;;;24.63;;
19113;SDS011;9689;51.052;13.772;2023-04-09T06:10:33;48.72;;;24.30;;
19113;SDS011;9689;51.052;13.772;2023-04-09T06:15:33;51.63;;;23.27;;
19113;SDS011;9689;51.052;13.772;2023-04-09T06:20:37;48.13;;;23.75;;
19113;SDS011;9689;51.052;13.772;2023-04-09T06:25:38;48.78;;;24.02;;
19113;SDS011;9689;51.052;13.772;2023-04-09T06:30:39;45.15;;;22.77;;
19113;SDS011;9689;51.052;13.772;2023-04-09T06:35:41;47.65;;;22.92;;
19113;SDS011;9689;51.052;13.772;2023-04-09T06:40:42;43.60;;;23.33;;
19113;SDS011;9689;51.052;13.772;2023-04-09T06:45:43;48.72;;;22.67;;
19113;SDS011;9689;51.052;13.772;2023-04-09T06:50:44;46.63;;;23.70;;
19113;SDS011;9689;51.052;13.772;2023-04-09T06:55:45;47.85;;;24.38;;
19113;SDS011;9689;51.052;13.772;2023-04-09T07:00:46;49.45;;;23.65;;
19113;SDS011;9689;51.052;13.772;2023-04-09T07:05:48;48.25;;;24.75;;
19113;SDS011;9689;51.052;13.772;2023-04-09T07:10:48;51.45;;;24.88;;
19113;SDS011;9689;51.052;13.772;2023-04-09T07:15:49;48.58;;;24.73;;
19113;SDS011;9689;51.052;13.772;2023-04-09T07:20:52;48.95;;;24.25;;
19113;SDS011;9689;51.052;13.772;2023-04-09T07:25:53;46.42;;;24.17;;
19113;SDS011;9689;51.052;13.772;2023-04-09T07:30:54;50.13;;;25.05;;
19113;SDS011;9689;51.052;13.772;2023-04-09T07:35:56;53.95;;;26.85;;
19113;SDS011;9689;51.052;13.772;2023-04-09T07:40:56;48.50;;;26.13;;
19113;SDS011;9689;51.052;13.772;2023-04-09T07:45:57;46.58;;;24.02;;
19113;SDS011;9689;51.052;13.772;2023-04-09T07:51:01;47.10;;;24.92;;
19113;SDS011;9689;51.052;13.772;2023-04-09T07:56:03;47.72;;;24.77;;
19113;SDS011;9689;51.052;13.772;2023-04-09T08:01:05;45.97;;;24.30;;
19113;SDS011;9689;51.052;13.772;2023-04-09T08:06:07;47.13;;;24.23;;
19113;SDS011;9689;51.052;13.772;2023-04-09T08:11:07;40.30;;;22.70;;
19113;SDS011;9689;51.052;13.772;2023-04-09T08:16:08;47.85;;;23.83;;
19113;SDS011;9689;51.052;13.772;2023-04-09T08:21:10;44.47;;;22.25;;
19113;SDS011;9689;51.052;13.772;2023-04-09T08:26:10;47.33;;;22.75;;
19113;SDS011;9689;51.052;13.772;2023-04-09T08:31:11;42.47;;;22.83;;
19113;SDS011;9689;51.052;13.772;2023-04-09T08:36:13;44.08;;;23.00;;
19113;SDS011;9689;51.052;13.772;2023-04-09T08:41:16;42.80;;;23.58;;
19113;SDS011;9689;51.052;13.772;2023-04-09T08:46:18;42.50;;;21.83;;
19113;SDS011;9689;51.052;13.772;2023-04-09T08:51:21;46.38;;;22.95;;
19113;SDS011;9689;51.052;13.772;2023-04-09T08:56:23;41.28;;;21.98;;
19113;SDS011;9689;51.052;13.772;2023-04-09T09:01:24;40.42;;;22.58;;
19113;SDS011;9689;51.052;13.772;2023-04-09T09:06:28;38.30;;;21.83;;
19113;SDS011;9689;51.052;13.772;2023-04-09T09:11:32;41.80;;;25.63;;
19113;SDS011;9689;51.052;13.772;2023-04-09T09:16:33;33.72;;;19.88;;
19113;SDS011;9689;51.052;13.772;2023-04-09T09:21:39;35.75;;;21.02;;
19113;SDS011;9689;51.052;13.772;2023-04-09T09:26:40;37.72;;;20.92;;
19113;SDS011;9689;51.052;13.772;2023-04-09T09:31:45;36.15;;;20.35;;
19113;SDS011;9689;51.052;13.772;2023-04-09T09:36:48;34.78;;;20.50;;
19113;SDS011;9689;51.052;13.772;2023-04-09T09:41:49;35.90;;;21.23;;
19113;SDS011;9689;51.052;13.772;2023-04-09T09:47:06;33.10;;;20.30;;
19113;SDS011;9689;51.052;13.772;2023-04-09T09:52:10;36.40;;;21.45;;
19113;SDS011;9689;51.052;13.772;2023-04-09T09:57:11;35.20;;;20.58;;
19113;SDS011;9689;51.052;13.772;2023-04-09T10:02:17;31.52;;;19.33;;
19113;SDS011;9689;51.052;13.772;2023-04-09T10:07:21;40.20;;;23.08;;
19113;SDS011;9689;51.052;13.772;2023-04-09T10:12:22;33.97;;;20.35;;
19113;SDS011;9689;51.052;13.772;2023-04-09T10:17:24;35.10;;;20.77;;
19113;SDS011;9689;51.052;13.772;2023-04-09T10:22:26;39.72;;;21.42;;
19113;SDS011;9689;51.052;13.772;2023-04-09T10:27:31;37.17;;;21.00;;
19113;SDS011;9689;51.052;13.772;2023-04-09T10:32:33;37.17;;;21.75;;
19113;SDS011;9689;51.052;13.772;2023-04-09T10:37:36;37.97;;;20.65;;
19113;SDS011;9689;51.052;13.772;2023-04-09T10:42:38;35.28;;;21.38;;
19113;SDS011;9689;51.052;13.772;2023-04-09T10:47:42;41.08;;;22.05;;
19113;SDS011;9689;51.052;13.772;2023-04-09T10:52:46;35.05;;;21.00;;
19113;SDS011;9689;51.052;13.772;2023-04-09T10:57:51;38.55;;;22.02;;
19113;SDS011;9689;51.052;13.772;2023-04-09T11:03:08;33.45;;;18.92;;
19113;SDS011;9689;51.052;13.772;2023-04-09T11:08:28;35.22;;;20.67;;
19113;SDS011;9689;51.052;13.772;2023-04-09T11:13:30;30.67;;;18.55;;
19113;SDS011;9689;51.052;13.772;2023-04-09T11:18:33;32.60;;;18.70;;
19113;SDS011;9689;51.052;13.772;2023-04-09T11:23:36;33.80;;;19.83;;
19113;SDS011;9689;51.052;13.772;2023-04-09T11:28:39;26.20;;;17.83;;
19113;SDS011;9689;51.052;13.772;2023-04-09T11:33:40;28.95;;;17.70;;
19113;SDS011;9689;51.052;13.772;2023-04-09T11:38:48;32.47;;;18.40;;
19113;SDS011;9689;51.052;13.772;2023-04-09T11:43:50;29.52;;;18.20;;
19113;SDS011;9689;51.052;13.772;2023-04-09T11:48:51;35.72;;;18.85;;
19113;SDS011;9689;51.052;13.772;2023-04-09T11:53:54;28.92;;;17.73;;
19113;SDS011;9689;51.052;13.772;2023-04-09T11:58:55;30.00;;;18.17;;
19113;SDS011;9689;51.052;13.772;2023-04-09T12:03:55;27.77;;;18.00;;
19113;SDS011;9689;51.052;13.772;2023-04-09T12:08:58;30.70;;;17.88;;
19113;SDS011;9689;51.052;13.772;2023-04-09T12:13:59;28.55;;;17.08;;
19113;SDS011;9689;51.052;13.772;2023-04-09T12:19:01;29.90;;;17.67;;
19113;SDS011;9689;51.052;13.772;2023-04-09T12:24:03;31.95;;;18.05;;
19113;SDS011;9689;51.052;13.772;2023-04-09T12:29:04;31.58;;;18.52;;
19113;SDS011;9689;51.052;13.772;2023-04-09T12:34:05;26.67;;;16.85;;
19113;SDS011;9689;51.052;13.772;2023-04-09T12:39:07;36.20;;;17.88;;
19113;SDS011;9689;51.052;13.772;2023-04-09T12:44:08;26.83;;;17.23;;
19113;SDS011;9689;51.052;13.772;2023-04-09T12:49:08;30.08;;;16.88;;
19113;SDS011;9689;51.052;13.772;2023-04-09T12:54:10;25.50;;;16.23;;
19113;SDS011;9689;51.052;13.772;2023-04-09T12:59:11;25.85;;;15.77;;
19113;SDS011;9689;51.052;13.772;2023-04-09T13:04:12;28.50;;;15.77;;
19113;SDS011;9689;51.052;13.772;2023-04-09T13:09:14;26.27;;;15.80;;
19113;SDS011;9689;51.052;13.772;2023-04-09T13:14:15;24.85;;;15.80;;
19113;SDS011;9689;51.052;13.772;2023-04-09T13:19:15;27.73;;;16.55;;
19113;SDS011;9689;51.052;13.772;2023-04-09T13:24:18;31.30;;;19.00;;
19113;SDS011;9689;51.052;13.772;2023-04-09T13:29:19;31.85;;;19.00;;
19113;SDS011;9689;51.052;13.772;2023-04-09T13:34:20;31.98;;;19.50;;
19113;SDS011;9689;51.052;13.772;2023-04-09T13:39:23;34.63;;;19.90;;
19113;SDS011;9689;51.052;13.772;2023-04-09T13:44:24;32.88;;;19.77;;
19113;SDS011;9689;51.052;13.772;2023-04-09T13:49:24;34.28;;;20.75;;
19113;SDS011;9689;51.052;13.772;2023-04-09T13:54:27;30.83;;;19.05;;
19113;SDS011;9689;51.052;13.772;2023-04-09T13:59:27;29.70;;;17.85;;
19113;SDS011;9689;51.052;13.772;2023-04-09T14:04:28;29.65;;;18.20;;
19113;SDS011;9689;51.052;13.772;2023-04-09T14:09:30;28.67;;;17.60;;
19113;SDS011;9689;51.052;13.772;2023-04-09T14:14:31;24.73;;;15.73;;
19113;SDS011;9689;51.052;13.772;2023-04-09T14:19:32;26.85;;;16.88;;
19113;SDS011;9689;51.052;13.772;2023-04-09T14:24:34;24.52;;;14.63;;
19113;SDS011;9689;51.052;13.772;2023-04-09T14:29:38;20.90;;;12.68;;
19113;SDS011;9689;51.052;13.772;2023-04-09T14:34:39;20.08;;;13.10;;
19113;SDS011;9689;51.052;13.772;2023-04-09T14:39:42;21.95;;;13.25;;
19113;SDS011;9689;51.052;13.772;2023-04-09T14:44:42;24.90;;;13.73;;
19113;SDS011;9689;51.052;13.772;2023-04-09T14:49:43;20.65;;;12.57;;
19113;SDS011;9689;51.052;13.772;2023-04-09T14:54:45;20.23;;;12.57;;
19113;SDS011;9689;51.052;13.772;2023-04-09T14:59:46;19.15;;;11.57;;
19113;SDS011;9689;51.052;13.772;2023-04-09T15:04:46;25.50;;;12.80;;
19113;SDS011;9689;51.052;13.772;2023-04-09T15:09:48;17.92;;;11.15;;
19113;SDS011;9689;51.052;13.772;2023-04-09T15:14:49;16.75;;;10.75;;
19113;SDS011;9689;51.052;13.772;2023-04-09T15:19:50;19.30;;;11.77;;
19113;SDS011;9689;51.052;13.772;2023-04-09T15:24:53;17.52;;;9.93;;
19113;SDS011;9689;51.052;13.772;2023-04-09T15:29:54;12.48;;;8.15;;
19113;SDS011;9689;51.052;13.772;2023-04-09T15:34:54;13.32;;;8.25;;
19113;SDS011;9689;51.052;13.772;2023-04-09T15:39:56;11.30;;;7.53;;
19113;SDS011;9689;51.052;13.772;2023-04-09T15:44:57;12.77;;;7.63;;
19113;SDS011;9689;51.052;13.772;2023-04-09T15:49:58;12.55;;;7.82;;
19113;SDS011;9689;51.052;13.772;2023-04-09T15:55:00;13.07;;;6.90;;
19113;SDS011;9689;51.052;13.772;2023-04-09T16:00:01;13.45;;;8.43;;
19113;SDS011;9689;51.052;13.772;2023-04-09T16:05:02;14.82;;;7.75;;
19113;SDS011;9689;51.052;13.772;2023-04-09T16:10:05;14.02;;;8.77;;
19113;SDS011;9689;51.052;13.772;2023-04-09T16:15:07;15.40;;;9.52;;
19113;SDS011;9689;51.052;13.772;2023-04-09T16:20:09;14.52;;;9.85;;
19113;SDS011;9689;51.052;13.772;2023-04-09T16:25:11;17.50;;;10.15;;
19113;SDS011;9689;51.052;13.772;2023-04-09T16:30:11;18.77;;;10.35;;
19113;SDS011;9689;51.052;13.772;2023-04-09T16:35:12;14.68;;;8.85;;
19113;SDS011;9689;51.052;13.772;2023-04-09T16:40:14;14.60;;;9.20;;
19113;SDS011;9689;51.052;13.772;2023-04-09T16:45:18;14.05;;;9.15;;
19113;SDS011;9689;51.052;13.772;2023-04-09T16:50:19;15.77;;;8.80;;
19113;SDS011;9689;51.052;13.772;2023-04-09T16:55:21;12.32;;;8.05;;
19113;SDS011;9689;51.052;13.772;2023-04-09T17:00:22;14.75;;;9.20;;
19113;SDS011;9689;51.052;13.772;2023-04-09T17:05:23;16.05;;;10.07;;
19113;SDS011;9689;51.052;13.772;2023-04-09T17:10:25;15.68;;;9.68;;
19113;SDS011;9689;51.052;13.772;2023-04-09T17:15:26;12.77;;;8.40;;
19113;SDS011;9689;51.052;13.772;2023-04-09T17:20:27;15.07;;;9.27;;
19113;SDS011;9689;51.052;13.772;2023-04-09T17:25:29;17.10;;;11.30;;
19113;SDS011;9689;51.052;13.772;2023-04-09T17:30:30;15.32;;;10.35;;
19113;SDS011;9689;51.052;13.772;2023-04-09T17:35:31;15.38;;;10.13;;
19113;SDS011;9689;51.052;13.772;2023-04-09T17:40:33;18.48;;;11.05;;
19113;SDS011;9689;51.052;13.772;2023-04-09T17:45:34;18.80;;;11.05;;
19113;SDS011;9689;51.052;13.772;2023-04-09T17:50:35;19.63;;;11.57;;
19113;SDS011;9689;51.052;13.772;2023-04-09T17:55:37;22.10;;;12.45;;
19113;SDS011;9689;51.052;13.772;2023-04-09T18:00:38;17.60;;;11.30;;
19113;SDS011;9689;51.052;13.772;2023-04-09T18:05:39;19.45;;;11.18;;
19113;SDS011;9689;51.052;13.772;2023-04-09T18:10:41;21.60;;;12.45;;
19113;SDS011;9689;51.052;13.772;2023-04-09T18:15:42;20.58;;;11.43;;
19113;SDS011;9689;51.052;13.772;2023-04-09T18:20:42;22.33;;;11.77;;
19113;SDS011;9689;51.052;13.772;2023-04-09T18:25:45;20.05;;;12.02;;
19113;SDS011;9689;51.052;13.772;2023-04-09T18:30:48;16.15;;;10.00;;
19113;SDS011;9689;51.052;13.772;2023-04-09T18:35:49;18.58;;;10.80;;
19113;SDS011;9689;51.052;13.772;2023-04-09T18:40:51;19.52;;;11.45;;
19113;SDS011;9689;51.052;13.772;2023-04-09T18:45:52;18.52;;;11.10;;
19113;SDS011;9689;51.052;13.772;2023-04-09T18:50:54;20.83;;;11.23;;
19113;SDS011;9689;51.052;13.772;2023-04-09T18:55:56;18.50;;;10.95;;
19113;SDS011;9689;51.052;13.772;2023-04-09T19:01:00;19.02;;;11.07;;
19113;SDS011;9689;51.052;13.772;2023-04-09T19:06:09;18.48;;;10.88;;
19113;SDS011;9689;51.052;13.772;2023-04-09T19:11:12;19.92;;;11.15;;
19113;SDS011;9689;51.052;13.772;2023-04-09T19:16:14;22.83;;;12.70;;
19113;SDS011;9689;51.052;13.772;2023-04-09T19:21:15;23.23;;;12.82;;
19113;SDS011;9689;51.052;13.772;2023-04-09T19:26:18;24.48;;;13.15;;
19113;SDS011;9689;51.052;13.772;2023-04-09T19:31:19;30.05;;;16.33;;
19113;SDS011;9689;51.052;13.772;2023-04-09T19:36:19;27.70;;;16.20;;
19113;SDS011;9689;51.052;13.772;2023-04-09T19:41:22;29.02;;;15.85;;
19113;SDS011;9689;51.052;13.772;2023-04-09T19:46:23;28.38;;;16.00;;
19113;SDS011;9689;51.052;13.772;2023-04-09T19:51:25;21.80;;;13.60;;
19113;SDS011;9689;51.052;13.772;2023-04-09T19:56:28;24.40;;;14.15;;
19113;SDS011;9689;51.052;13.772;2023-04-09T20:01:31;23.70;;;13.55;;
19113;SDS011;9689;51.052;13.772;2023-04-09T20:06:32;21.98;;;13.20;;
19113;SDS011;9689;51.052;13.772;2023-04-09T20:11:35;24.95;;;14.90;;
19113;SDS011;9689;51.052;13.772;2023-04-09T20:16:35;24.00;;;13.90;;
19113;SDS011;9689;51.052;13.772;2023-04-09T20:21:36;22.35;;;13.25;;
19113;SDS011;9689;51.052;13.772;2023-04-09T20:26:38;21.20;;;13.45;;
19113;SDS011;9689;51.052;13.772;2023-04-09T20:31:39;25.83;;;13.70;;
19113;SDS011;9689;51.052;13.772;2023-04-09T20:36:40;27.27;;;13.52;;
19113;SDS011;9689;51.052;13.772;2023-04-09T20:41:43;27.23;;;13.90;;
19113;SDS011;9689;51.052;13.772;2023-04-09T20:46:44;25.25;;;13.75;;
19113;SDS011;9689;51.052;13.772;2023-04-09T20:51:44;27.80;;;14.75;;
19113;SDS011;9689;51.052;13.772;2023-04-09T20:56:47;22.35;;;13.48;;
19113;SDS011;9689;51.052;13.772;2023-04-09T21:01:48;26.05;;;14.65;;
19113;SDS011;9689;51.052;13.772;2023-04-09T21:06:53;25.52;;;13.88;;
19113;SDS011;9689;51.052;13.772;2023-04-09T21:11:55;27.15;;;14.13;;
19113;SDS011;9689;51.052;13.772;2023-04-09T21:16:56;24.55;;;14.20;;
19113;SDS011;9689;51.052;13.772;2023-04-09T21:21:56;24.35;;;14.23;;
19113;SDS011;9689;51.052;13.772;2023-04-09T21:26:58;21.98;;;12.50;;
19113;SDS011;9689;51.052;13.772;2023-04-09T21:31:59;25.20;;;12.77;;
19113;SDS011;9689;51.052;13.772;2023-04-09T21:37:00;26.13;;;14.65;;
19113;SDS011;9689;51.052;13.772;2023-04-09T21:42:03;24.33;;;14.00;;
19113;SDS011;9689;51.052;13.772;2023-04-09T21:47:05;27.35;;;14.75;;
19113;SDS011;9689;51.052;13.772;2023-04-09T21:52:07;22.25;;;13.38;;
19113;SDS011;9689;51.052;13.772;2023-04-09T21:57:14;24.55;;;13.98;;
19113;SDS011;9689;51.052;13.772;2023-04-09T22:02:15;23.83;;;14.15;;
19113;SDS011;9689;51.052;13.772;2023-04-09T22:07:16;25.00;;;14.68;;
19113;SDS011;9689;51.052;13.772;2023-04-09T22:12:18;26.13;;;14.57;;
19113;SDS011;9689;51.052;13.772;2023-04-09T22:17:18;22.92;;;14.40;;
19113;SDS011;9689;51.052;13.772;2023-04-09T22:22:19;22.67;;;13.90;;
19113;SDS011;9689;51.052;13.772;2023-04-09T22:27:21;28.67;;;15.90;;
19113;SDS011;9689;51.052;13.772;2023-04-09T22:32:22;23.88;;;13.90;;
19113;SDS011;9689;51.052;13.772;2023-04-09T22:37:22;23.98;;;14.15;;
19113;SDS011;9689;51.052;13.772;2023-04-09T22:42:24;23.50;;;13.68;;
19113;SDS011;9689;51.052;13.772;2023-04-09T22:47:25;26.52;;;15.75;;
19113;SDS011;9689;51.052;13.772;2023-04-09T22:52:26;27.45;;;14.40;;
19113;SDS011;9689;51.052;13.772;2023-04-09T22:57:28;26.40;;;14.90;;
19113;SDS011;9689;51.052;13.772;2023-04-09T23:02:29;30.25;;;15.70;;
19113;SDS011;9689;51.052;13.772;2023-04-09T23:07:30;27.15;;;15.85;;
19113;SDS011;9689;51.052;13.772;2023-04-09T23:12:32;27.13;;;15.95;;
19113;SDS011;9689;51.052;13.772;2023-04-09T23:17:34;30.17;;;15.90;;
19113;SDS011;9689;51.052;13.772;2023-04-09T23:22:34;31.15;;;16.40;;
19113;SDS011;9689;51.052;13.772;2023-04-09T23:27:36;29.90;;;15.75;;
19113;SDS011;9689;51.052;13.772;2023-04-09T23:32:37;27.27;;;16.10;;
19113;SDS011;9689;51.052;13.772;2023-04-09T23:37:38;31.45;;;17.20;;
19113;SDS011;9689;51.052;13.772;2023-04-09T23:42:40;29.33;;;16.02;;
19113;SDS011;9689;51.052;13.772;2023-04-09T23:47:41;33.90;;;18.27;;
19113;SDS011;9689;51.052;13.772;2023-04-09T23:52:44;39.92;;;19.90;;
19113;SDS011;9689;51.052;13.772;2023-04-09T23:57:47;40.35;;;20.20;;
